createdAt,value
2022-12-07T00:10:58.763Z,18.97
2022-12-07T00:26:14.700Z,18.96
2022-12-07T00:41:30.673Z,18.93
2022-12-07T00:56:47.651Z,18.9
2022-12-07T01:12:04.582Z,18.89
2022-12-07T01:27:21.600Z,18.86
2022-12-07T01:42:38.523Z,18.84
2022-12-07T01:57:55.536Z,18.83
2022-12-07T02:13:11.488Z,18.81
2022-12-07T02:28:27.477Z,18.79
2022-12-07T02:43:43.401Z,18.77
2022-12-07T02:59:00.412Z,18.75
2022-12-07T03:14:16.347Z,18.77
2022-12-07T03:29:33.318Z,18.8
2022-12-07T03:44:50.280Z,18.85
2022-12-07T04:00:07.286Z,18.9
2022-12-07T04:15:23.212Z,18.94
2022-12-07T04:30:39.186Z,18.97
2022-12-07T04:45:55.175Z,18.99
2022-12-07T05:01:12.153Z,19.01
2022-12-07T05:16:29.169Z,19.03
2022-12-07T05:31:46.220Z,19.05
2022-12-07T05:32:30.948Z,19.05
2022-12-07T05:47:03.083Z,19.05
2022-12-07T05:47:47.906Z,19.05
2022-12-07T06:02:21.105Z,19.07
2022-12-07T06:17:37.007Z,19.08
2022-12-07T06:32:53.973Z,19.06
2022-12-07T06:48:10.961Z,19.08
2022-12-07T07:03:27.905Z,19.06
2022-12-07T07:18:43.868Z,19.06
2022-12-07T07:33:59.818Z,19.04
2022-12-07T07:49:15.818Z,19.02
2022-12-07T08:04:32.880Z,19.05
2022-12-07T08:19:48.769Z,19.06
2022-12-07T08:35:05.749Z,19.07
2022-12-07T08:50:21.701Z,19.09
2022-12-07T09:05:37.728Z,19.09
2022-12-07T09:20:53.650Z,19.08
2022-12-07T09:36:09.635Z,19.08
2022-12-07T09:51:26.568Z,19.08
2022-12-07T10:06:42.559Z,19.06
2022-12-07T10:07:22.509Z,19.06
2022-12-07T10:21:59.523Z,19.07
2022-12-07T10:37:16.509Z,19.07
2022-12-07T10:52:34.422Z,19.05
2022-12-07T11:07:56.631Z,19.04
2022-12-07T11:23:07.342Z,19.04
2022-12-07T11:38:27.967Z,19.03
2022-12-07T11:53:40.291Z,19.02
2022-12-07T12:24:12.211Z,19.02
2022-12-07T12:39:29.220Z,19.01
2022-12-07T12:54:47.150Z,19
2022-12-07T13:10:03.167Z,18.98
2022-12-07T13:25:21.252Z,18.98
2022-12-07T13:40:35.097Z,18.96
2022-12-07T13:55:54.523Z,18.93
2022-12-07T14:11:08.022Z,18.93
2022-12-07T14:26:24.982Z,18.94
2022-12-07T14:41:41.980Z,19
2022-12-07T14:56:58.949Z,19.02
2022-12-07T15:12:14.872Z,18.98
2022-12-07T15:27:30.870Z,18.96
2022-12-07T15:42:46.813Z,18.94
2022-12-07T15:58:03.841Z,18.93
2022-12-07T16:13:20.775Z,18.91
2022-12-07T16:28:37.748Z,18.89
2022-12-07T16:43:54.694Z,18.88
2022-12-07T16:59:11.724Z,18.88
2022-12-07T17:14:27.639Z,18.85
2022-12-07T17:29:43.594Z,18.83
2022-12-07T17:44:59.763Z,18.82
2022-12-07T18:00:16.553Z,18.8
2022-12-07T18:15:33.525Z,18.79
2022-12-07T18:31:14.378Z,18.78
2022-12-07T18:46:06.514Z,18.77
2022-12-07T19:01:23.466Z,18.76
2022-12-07T19:16:39.459Z,18.75
2022-12-07T19:31:55.540Z,18.74
2022-12-07T19:47:11.369Z,18.73
2022-12-07T20:02:29.343Z,18.7
2022-12-07T20:17:46.311Z,18.71
2022-12-07T20:33:03.232Z,18.68
2022-12-07T20:48:19.239Z,18.67
2022-12-07T21:03:36.175Z,18.66
2022-12-07T21:18:52.188Z,18.65
2022-12-07T21:34:08.163Z,18.66
2022-12-07T21:49:25.113Z,18.7
2022-12-07T22:04:43.082Z,18.76
2022-12-07T22:20:00.076Z,18.83
2022-12-07T22:35:16.038Z,18.9
2022-12-07T22:50:32.008Z,18.99
2022-12-07T23:05:48.999Z,19.05
2022-12-07T23:21:05.165Z,19.09
2022-12-07T23:36:20.914Z,19.13
2022-12-07T23:51:37.886Z,19.15
